sensor_id;sensor_type;location;lat;lon;timestamp;P1;durP1;ratioP1;P2;durP2;ratioP2
44139;SDS011;29803;51.048;4.686;2022-07-11T00:00:09;11.10;;;5.20;;
44139;SDS011;29803;51.048;4.686;2022-07-11T00:02:42;9.13;;;4.68;;
44139;SDS011;29803;51.048;4.686;2022-07-11T00:05:12;10.35;;;5.13;;
44139;SDS011;29803;51.048;4.686;2022-07-11T00:07:43;8.18;;;5.10;;
44139;SDS011;29803;51.048;4.686;2022-07-11T00:10:13;8.32;;;4.75;;
44139;SDS011;29803;51.048;4.686;2022-07-11T00:12:44;8.90;;;4.82;;
44139;SDS011;29803;51.048;4.686;2022-07-11T00:15:14;12.25;;;5.30;;
44139;SDS011;29803;51.048;4.686;2022-07-11T00:17:45;8.10;;;4.22;;
44139;SDS011;29803;51.048;4.686;2022-07-11T00:20:15;7.78;;;4.00;;
44139;SDS011;29803;51.048;4.686;2022-07-11T00:22:46;7.70;;;4.38;;
44139;SDS011;29803;51.048;4.686;2022-07-11T00:25:16;5.75;;;4.20;;
44139;SDS011;29803;51.048;4.686;2022-07-11T00:27:47;8.95;;;4.28;;
44139;SDS011;29803;51.048;4.686;2022-07-11T00:30:17;8.10;;;4.90;;
44139;SDS011;29803;51.048;4.686;2022-07-11T00:32:48;8.65;;;5.22;;
44139;SDS011;29803;51.048;4.686;2022-07-11T00:35:19;8.05;;;4.50;;
44139;SDS011;29803;51.048;4.686;2022-07-11T00:37:49;10.43;;;4.78;;
44139;SDS011;29803;51.048;4.686;2022-07-11T00:40:19;14.68;;;5.22;;
44139;SDS011;29803;51.048;4.686;2022-07-11T00:42:50;9.52;;;5.30;;
44139;SDS011;29803;51.048;4.686;2022-07-11T00:45:21;8.73;;;5.35;;
44139;SDS011;29803;51.048;4.686;2022-07-11T00:47:51;9.20;;;5.00;;
44139;SDS011;29803;51.048;4.686;2022-07-11T00:50:21;7.10;;;4.13;;
44139;SDS011;29803;51.048;4.686;2022-07-11T00:52:53;5.50;;;4.00;;
44139;SDS011;29803;51.048;4.686;2022-07-11T00:55:26;6.13;;;4.38;;
44139;SDS011;29803;51.048;4.686;2022-07-11T00:57:58;10.73;;;4.60;;
44139;SDS011;29803;51.048;4.686;2022-07-11T01:00:29;8.00;;;5.03;;
44139;SDS011;29803;51.048;4.686;2022-07-11T01:02:59;9.60;;;5.05;;
44139;SDS011;29803;51.048;4.686;2022-07-11T01:05:30;9.43;;;5.45;;
44139;SDS011;29803;51.048;4.686;2022-07-11T01:08:01;7.53;;;4.90;;
44139;SDS011;29803;51.048;4.686;2022-07-11T01:10:32;9.13;;;4.53;;
44139;SDS011;29803;51.048;4.686;2022-07-11T01:13:02;11.77;;;5.30;;
44139;SDS011;29803;51.048;4.686;2022-07-11T01:15:34;11.15;;;5.70;;
44139;SDS011;29803;51.048;4.686;2022-07-11T01:18:05;12.48;;;5.70;;
44139;SDS011;29803;51.048;4.686;2022-07-11T01:20:36;10.57;;;6.30;;
44139;SDS011;29803;51.048;4.686;2022-07-11T01:23:07;12.63;;;5.72;;
44139;SDS011;29803;51.048;4.686;2022-07-11T01:25:37;11.35;;;6.07;;
44139;SDS011;29803;51.048;4.686;2022-07-11T01:28:08;5.95;;;4.55;;
44139;SDS011;29803;51.048;4.686;2022-07-11T01:30:38;9.13;;;5.15;;
44139;SDS011;29803;51.048;4.686;2022-07-11T01:33:09;8.77;;;5.45;;
44139;SDS011;29803;51.048;4.686;2022-07-11T01:35:39;11.07;;;5.80;;
44139;SDS011;29803;51.048;4.686;2022-07-11T01:38:09;15.52;;;7.30;;
44139;SDS011;29803;51.048;4.686;2022-07-11T01:40:41;15.30;;;6.20;;
44139;SDS011;29803;51.048;4.686;2022-07-11T01:43:11;12.43;;;6.35;;
44139;SDS011;29803;51.048;4.686;2022-07-11T01:45:42;8.48;;;5.78;;
44139;SDS011;29803;51.048;4.686;2022-07-11T01:48:13;10.25;;;6.32;;
44139;SDS011;29803;51.048;4.686;2022-07-11T01:50:53;13.57;;;7.07;;
44139;SDS011;29803;51.048;4.686;2022-07-11T01:53:24;13.45;;;8.07;;
44139;SDS011;29803;51.048;4.686;2022-07-11T01:55:54;14.48;;;8.10;;
44139;SDS011;29803;51.048;4.686;2022-07-11T01:58:25;13.48;;;7.18;;
44139;SDS011;29803;51.048;4.686;2022-07-11T02:00:58;11.32;;;6.85;;
44139;SDS011;29803;51.048;4.686;2022-07-11T02:03:33;11.98;;;7.15;;
44139;SDS011;29803;51.048;4.686;2022-07-11T02:06:04;14.05;;;8.13;;
44139;SDS011;29803;51.048;4.686;2022-07-11T02:08:35;14.32;;;7.35;;
44139;SDS011;29803;51.048;4.686;2022-07-11T02:11:07;19.60;;;8.25;;
44139;SDS011;29803;51.048;4.686;2022-07-11T02:13:38;17.88;;;9.57;;
44139;SDS011;29803;51.048;4.686;2022-07-11T02:16:08;14.88;;;7.72;;
44139;SDS011;29803;51.048;4.686;2022-07-11T02:18:39;11.65;;;6.45;;
44139;SDS011;29803;51.048;4.686;2022-07-11T02:21:09;12.05;;;6.28;;
44139;SDS011;29803;51.048;4.686;2022-07-11T02:23:42;14.20;;;7.00;;
44139;SDS011;29803;51.048;4.686;2022-07-11T02:26:13;14.02;;;7.32;;
44139;SDS011;29803;51.048;4.686;2022-07-11T02:28:43;15.15;;;7.25;;
44139;SDS011;29803;51.048;4.686;2022-07-11T02:31:14;10.63;;;7.20;;
44139;SDS011;29803;51.048;4.686;2022-07-11T02:33:45;9.93;;;6.18;;
44139;SDS011;29803;51.048;4.686;2022-07-11T02:36:15;23.40;;;9.73;;
44139;SDS011;29803;51.048;4.686;2022-07-11T02:38:46;16.45;;;9.65;;
44139;SDS011;29803;51.048;4.686;2022-07-11T02:41:16;24.15;;;10.32;;
44139;SDS011;29803;51.048;4.686;2022-07-11T02:43:48;24.02;;;13.13;;
44139;SDS011;29803;51.048;4.686;2022-07-11T02:46:19;24.88;;;12.82;;
44139;SDS011;29803;51.048;4.686;2022-07-11T02:48:49;27.60;;;12.77;;
44139;SDS011;29803;51.048;4.686;2022-07-11T02:51:20;26.70;;;13.68;;
44139;SDS011;29803;51.048;4.686;2022-07-11T02:53:50;32.42;;;15.70;;
44139;SDS011;29803;51.048;4.686;2022-07-11T02:56:21;33.05;;;15.90;;
44139;SDS011;29803;51.048;4.686;2022-07-11T02:58:51;32.92;;;17.25;;
44139;SDS011;29803;51.048;4.686;2022-07-11T03:01:22;34.25;;;17.67;;
44139;SDS011;29803;51.048;4.686;2022-07-11T03:03:52;36.35;;;17.23;;
44139;SDS011;29803;51.048;4.686;2022-07-11T03:06:23;35.60;;;18.38;;
44139;SDS011;29803;51.048;4.686;2022-07-11T03:08:53;43.40;;;21.08;;
44139;SDS011;29803;51.048;4.686;2022-07-11T03:11:24;38.35;;;19.40;;
44139;SDS011;29803;51.048;4.686;2022-07-11T03:13:54;42.67;;;19.13;;
44139;SDS011;29803;51.048;4.686;2022-07-11T03:16:25;45.30;;;20.67;;
44139;SDS011;29803;51.048;4.686;2022-07-11T03:18:56;47.92;;;21.27;;
44139;SDS011;29803;51.048;4.686;2022-07-11T03:21:27;44.53;;;23.30;;
44139;SDS011;29803;51.048;4.686;2022-07-11T03:23:57;38.20;;;20.67;;
44139;SDS011;29803;51.048;4.686;2022-07-11T03:26:28;36.28;;;18.42;;
44139;SDS011;29803;51.048;4.686;2022-07-11T03:28:58;45.63;;;21.25;;
44139;SDS011;29803;51.048;4.686;2022-07-11T03:31:29;36.80;;;18.13;;
44139;SDS011;29803;51.048;4.686;2022-07-11T03:33:59;39.30;;;19.77;;
44139;SDS011;29803;51.048;4.686;2022-07-11T03:36:30;35.97;;;19.70;;
44139;SDS011;29803;51.048;4.686;2022-07-11T03:39:00;30.95;;;18.17;;
44139;SDS011;29803;51.048;4.686;2022-07-11T03:41:31;37.55;;;19.95;;
44139;SDS011;29803;51.048;4.686;2022-07-11T03:44:01;38.92;;;21.58;;
44139;SDS011;29803;51.048;4.686;2022-07-11T03:46:32;35.70;;;20.60;;
44139;SDS011;29803;51.048;4.686;2022-07-11T03:49:02;38.45;;;20.23;;
44139;SDS011;29803;51.048;4.686;2022-07-11T03:51:33;40.72;;;20.08;;
44139;SDS011;29803;51.048;4.686;2022-07-11T03:54:03;33.90;;;18.08;;
44139;SDS011;29803;51.048;4.686;2022-07-11T03:56:34;38.45;;;18.75;;
44139;SDS011;29803;51.048;4.686;2022-07-11T03:59:04;30.42;;;16.85;;
44139;SDS011;29803;51.048;4.686;2022-07-11T04:01:35;36.42;;;18.42;;
44139;SDS011;29803;51.048;4.686;2022-07-11T04:04:05;33.97;;;19.10;;
44139;SDS011;29803;51.048;4.686;2022-07-11T04:06:38;35.45;;;18.83;;
44139;SDS011;29803;51.048;4.686;2022-07-11T04:09:08;36.17;;;19.55;;
44139;SDS011;29803;51.048;4.686;2022-07-11T04:11:40;34.55;;;18.85;;
44139;SDS011;29803;51.048;4.686;2022-07-11T04:14:10;35.92;;;19.42;;
44139;SDS011;29803;51.048;4.686;2022-07-11T04:16:41;36.67;;;20.17;;
44139;SDS011;29803;51.048;4.686;2022-07-11T04:19:11;40.10;;;21.27;;
44139;SDS011;29803;51.048;4.686;2022-07-11T04:21:42;46.80;;;20.63;;
44139;SDS011;29803;51.048;4.686;2022-07-11T04:24:12;43.17;;;20.17;;
44139;SDS011;29803;51.048;4.686;2022-07-11T04:26:43;34.55;;;18.67;;
44139;SDS011;29803;51.048;4.686;2022-07-11T04:29:13;35.28;;;16.80;;
44139;SDS011;29803;51.048;4.686;2022-07-11T04:31:44;33.17;;;18.33;;
44139;SDS011;29803;51.048;4.686;2022-07-11T04:34:14;28.80;;;16.25;;
44139;SDS011;29803;51.048;4.686;2022-07-11T04:36:45;32.00;;;15.70;;
44139;SDS011;29803;51.048;4.686;2022-07-11T04:39:15;32.28;;;17.35;;
44139;SDS011;29803;51.048;4.686;2022-07-11T04:41:46;36.63;;;16.05;;
44139;SDS011;29803;51.048;4.686;2022-07-11T04:44:16;35.95;;;18.85;;
44139;SDS011;29803;51.048;4.686;2022-07-11T04:46:47;39.03;;;19.05;;
44139;SDS011;29803;51.048;4.686;2022-07-11T04:49:18;40.45;;;19.48;;
44139;SDS011;29803;51.048;4.686;2022-07-11T04:51:48;44.55;;;22.35;;
44139;SDS011;29803;51.048;4.686;2022-07-11T04:54:19;43.75;;;22.25;;
44139;SDS011;29803;51.048;4.686;2022-07-11T04:56:49;45.58;;;23.50;;
44139;SDS011;29803;51.048;4.686;2022-07-11T04:59:20;44.00;;;23.73;;
44139;SDS011;29803;51.048;4.686;2022-07-11T05:01:50;46.13;;;22.92;;
44139;SDS011;29803;51.048;4.686;2022-07-11T05:04:21;50.65;;;22.85;;
44139;SDS011;29803;51.048;4.686;2022-07-11T05:06:51;36.95;;;21.40;;
44139;SDS011;29803;51.048;4.686;2022-07-11T05:09:22;36.53;;;20.23;;
44139;SDS011;29803;51.048;4.686;2022-07-11T05:11:53;39.38;;;20.80;;
44139;SDS011;29803;51.048;4.686;2022-07-11T05:14:23;42.17;;;22.02;;
44139;SDS011;29803;51.048;4.686;2022-07-11T05:16:53;40.60;;;22.02;;
44139;SDS011;29803;51.048;4.686;2022-07-11T05:19:24;48.92;;;23.27;;
44139;SDS011;29803;51.048;4.686;2022-07-11T05:21:55;49.78;;;23.58;;
44139;SDS011;29803;51.048;4.686;2022-07-11T05:24:25;38.40;;;20.52;;
44139;SDS011;29803;51.048;4.686;2022-07-11T05:26:56;42.63;;;23.13;;
44139;SDS011;29803;51.048;4.686;2022-07-11T05:29:26;40.70;;;21.48;;
44139;SDS011;29803;51.048;4.686;2022-07-11T05:31:57;44.35;;;23.83;;
44139;SDS011;29803;51.048;4.686;2022-07-11T05:34:28;47.22;;;22.88;;
44139;SDS011;29803;51.048;4.686;2022-07-11T05:36:59;37.58;;;20.67;;
44139;SDS011;29803;51.048;4.686;2022-07-11T05:39:29;44.33;;;21.48;;
44139;SDS011;29803;51.048;4.686;2022-07-11T05:42:00;48.78;;;24.48;;
44139;SDS011;29803;51.048;4.686;2022-07-11T05:44:30;37.58;;;20.42;;
44139;SDS011;29803;51.048;4.686;2022-07-11T05:47:01;36.58;;;20.13;;
44139;SDS011;29803;51.048;4.686;2022-07-11T05:49:33;39.08;;;19.08;;
44139;SDS011;29803;51.048;4.686;2022-07-11T05:52:03;34.50;;;19.38;;
44139;SDS011;29803;51.048;4.686;2022-07-11T05:54:34;44.47;;;21.85;;
44139;SDS011;29803;51.048;4.686;2022-07-11T05:57:05;37.22;;;18.50;;
44139;SDS011;29803;51.048;4.686;2022-07-11T05:59:36;41.78;;;20.52;;
44139;SDS011;29803;51.048;4.686;2022-07-11T06:02:07;34.42;;;20.25;;
44139;SDS011;29803;51.048;4.686;2022-07-11T06:04:38;33.58;;;18.20;;
44139;SDS011;29803;51.048;4.686;2022-07-11T06:07:08;41.80;;;18.33;;
44139;SDS011;29803;51.048;4.686;2022-07-11T06:09:39;27.95;;;14.48;;
44139;SDS011;29803;51.048;4.686;2022-07-11T06:12:09;25.65;;;14.20;;
44139;SDS011;29803;51.048;4.686;2022-07-11T06:14:40;24.08;;;13.23;;
44139;SDS011;29803;51.048;4.686;2022-07-11T06:17:11;22.30;;;12.57;;
44139;SDS011;29803;51.048;4.686;2022-07-11T06:19:42;22.88;;;11.73;;
44139;SDS011;29803;51.048;4.686;2022-07-11T06:22:12;19.02;;;11.35;;
44139;SDS011;29803;51.048;4.686;2022-07-11T06:24:44;17.27;;;10.60;;
44139;SDS011;29803;51.048;4.686;2022-07-11T06:27:15;19.02;;;11.73;;
44139;SDS011;29803;51.048;4.686;2022-07-11T06:29:45;25.95;;;12.43;;
44139;SDS011;29803;51.048;4.686;2022-07-11T06:32:15;22.20;;;11.88;;
44139;SDS011;29803;51.048;4.686;2022-07-11T06:34:46;17.83;;;10.82;;
44139;SDS011;29803;51.048;4.686;2022-07-11T06:37:17;21.00;;;11.88;;
44139;SDS011;29803;51.048;4.686;2022-07-11T06:39:47;18.02;;;12.68;;
44139;SDS011;29803;51.048;4.686;2022-07-11T06:42:18;21.15;;;12.57;;
44139;SDS011;29803;51.048;4.686;2022-07-11T06:44:48;22.35;;;13.10;;
44139;SDS011;29803;51.048;4.686;2022-07-11T06:47:18;29.40;;;13.07;;
44139;SDS011;29803;51.048;4.686;2022-07-11T06:49:49;19.70;;;12.10;;
44139;SDS011;29803;51.048;4.686;2022-07-11T06:52:19;22.38;;;13.88;;
44139;SDS011;29803;51.048;4.686;2022-07-11T06:54:50;29.63;;;14.40;;
44139;SDS011;29803;51.048;4.686;2022-07-11T06:57:20;23.85;;;13.60;;
44139;SDS011;29803;51.048;4.686;2022-07-11T06:59:51;27.17;;;13.82;;
44139;SDS011;29803;51.048;4.686;2022-07-11T07:02:21;23.90;;;13.15;;
44139;SDS011;29803;51.048;4.686;2022-07-11T07:04:58;26.10;;;13.43;;
44139;SDS011;29803;51.048;4.686;2022-07-11T07:07:29;26.80;;;12.82;;
44139;SDS011;29803;51.048;4.686;2022-07-11T07:09:59;19.55;;;11.00;;
44139;SDS011;29803;51.048;4.686;2022-07-11T07:12:30;19.17;;;10.55;;
44139;SDS011;29803;51.048;4.686;2022-07-11T07:15:00;16.73;;;10.30;;
44139;SDS011;29803;51.048;4.686;2022-07-11T07:17:31;22.98;;;9.93;;
44139;SDS011;29803;51.048;4.686;2022-07-11T07:20:02;14.30;;;9.30;;
44139;SDS011;29803;51.048;4.686;2022-07-11T07:22:34;16.48;;;9.90;;
44139;SDS011;29803;51.048;4.686;2022-07-11T07:25:05;16.15;;;10.35;;
44139;SDS011;29803;51.048;4.686;2022-07-11T07:27:37;17.88;;;10.80;;
44139;SDS011;29803;51.048;4.686;2022-07-11T07:30:08;14.13;;;8.90;;
44139;SDS011;29803;51.048;4.686;2022-07-11T07:32:38;15.68;;;9.27;;
44139;SDS011;29803;51.048;4.686;2022-07-11T07:35:09;16.33;;;8.00;;
44139;SDS011;29803;51.048;4.686;2022-07-11T07:37:39;15.85;;;8.27;;
44139;SDS011;29803;51.048;4.686;2022-07-11T07:40:10;13.93;;;8.25;;
44139;SDS011;29803;51.048;4.686;2022-07-11T07:42:40;12.88;;;8.38;;
44139;SDS011;29803;51.048;4.686;2022-07-11T07:45:11;13.23;;;9.18;;
44139;SDS011;29803;51.048;4.686;2022-07-11T07:47:42;14.80;;;9.65;;
44139;SDS011;29803;51.048;4.686;2022-07-11T07:50:12;17.85;;;11.23;;
44139;SDS011;29803;51.048;4.686;2022-07-11T07:52:43;18.83;;;11.07;;
44139;SDS011;29803;51.048;4.686;2022-07-11T07:55:13;17.92;;;11.75;;
44139;SDS011;29803;51.048;4.686;2022-07-11T07:57:44;19.85;;;12.02;;
44139;SDS011;29803;51.048;4.686;2022-07-11T08:00:14;22.20;;;12.05;;
44139;SDS011;29803;51.048;4.686;2022-07-11T08:03:04;19.10;;;12.40;;
44139;SDS011;29803;51.048;4.686;2022-07-11T08:05:36;17.08;;;10.38;;
44139;SDS011;29803;51.048;4.686;2022-07-11T08:08:06;14.55;;;9.25;;
44139;SDS011;29803;51.048;4.686;2022-07-11T08:10:37;15.88;;;9.30;;
44139;SDS011;29803;51.048;4.686;2022-07-11T08:13:07;16.10;;;9.85;;
44139;SDS011;29803;51.048;4.686;2022-07-11T08:15:38;19.23;;;12.27;;
44139;SDS011;29803;51.048;4.686;2022-07-11T08:18:08;19.98;;;12.70;;
44139;SDS011;29803;51.048;4.686;2022-07-11T08:20:39;16.50;;;11.30;;
44139;SDS011;29803;51.048;4.686;2022-07-11T08:23:09;17.80;;;11.65;;
44139;SDS011;29803;51.048;4.686;2022-07-11T08:25:40;14.18;;;11.25;;
44139;SDS011;29803;51.048;4.686;2022-07-11T08:28:11;17.48;;;10.43;;
44139;SDS011;29803;51.048;4.686;2022-07-11T08:30:41;17.00;;;10.65;;
44139;SDS011;29803;51.048;4.686;2022-07-11T08:33:12;13.57;;;9.88;;
44139;SDS011;29803;51.048;4.686;2022-07-11T08:35:43;16.75;;;10.65;;
44139;SDS011;29803;51.048;4.686;2022-07-11T08:38:13;21.85;;;12.13;;
44139;SDS011;29803;51.048;4.686;2022-07-11T08:40:44;13.43;;;9.90;;
44139;SDS011;29803;51.048;4.686;2022-07-11T08:43:15;15.60;;;11.48;;
44139;SDS011;29803;51.048;4.686;2022-07-11T08:45:46;15.68;;;11.50;;
44139;SDS011;29803;51.048;4.686;2022-07-11T08:48:17;14.55;;;10.60;;
44139;SDS011;29803;51.048;4.686;2022-07-11T08:50:49;15.80;;;10.95;;
44139;SDS011;29803;51.048;4.686;2022-07-11T08:53:20;21.67;;;10.27;;
44139;SDS011;29803;51.048;4.686;2022-07-11T08:55:51;12.70;;;9.52;;
44139;SDS011;29803;51.048;4.686;2022-07-11T08:58:22;18.90;;;11.77;;
44139;SDS011;29803;51.048;4.686;2022-07-11T09:00:53;14.75;;;10.38;;
44139;SDS011;29803;51.048;4.686;2022-07-11T09:03:25;14.73;;;11.18;;
44139;SDS011;29803;51.048;4.686;2022-07-11T09:05:55;15.18;;;10.60;;
44139;SDS011;29803;51.048;4.686;2022-07-11T09:08:26;16.15;;;9.82;;
44139;SDS011;29803;51.048;4.686;2022-07-11T09:10:58;11.77;;;9.88;;
44139;SDS011;29803;51.048;4.686;2022-07-11T09:13:29;13.57;;;10.85;;
44139;SDS011;29803;51.048;4.686;2022-07-11T09:16:01;17.73;;;11.95;;
44139;SDS011;29803;51.048;4.686;2022-07-11T09:18:34;19.20;;;13.05;;
44139;SDS011;29803;51.048;4.686;2022-07-11T09:21:06;20.42;;;14.20;;
44139;SDS011;29803;51.048;4.686;2022-07-11T09:24:00;22.15;;;13.50;;
44139;SDS011;29803;51.048;4.686;2022-07-11T09:26:51;17.75;;;11.95;;
44139;SDS011;29803;51.048;4.686;2022-07-11T09:29:22;20.67;;;13.10;;
44139;SDS011;29803;51.048;4.686;2022-07-11T09:31:54;17.15;;;12.57;;
44139;SDS011;29803;51.048;4.686;2022-07-11T09:34:25;19.75;;;13.43;;
44139;SDS011;29803;51.048;4.686;2022-07-11T09:36:57;17.48;;;11.88;;
44139;SDS011;29803;51.048;4.686;2022-07-11T09:39:28;23.15;;;16.35;;
44139;SDS011;29803;51.048;4.686;2022-07-11T09:41:59;24.05;;;16.20;;
44139;SDS011;29803;51.048;4.686;2022-07-11T09:44:30;23.13;;;17.42;;
44139;SDS011;29803;51.048;4.686;2022-07-11T09:47:08;20.75;;;14.80;;
44139;SDS011;29803;51.048;4.686;2022-07-11T09:49:40;20.77;;;14.30;;
44139;SDS011;29803;51.048;4.686;2022-07-11T09:52:11;18.13;;;12.98;;
44139;SDS011;29803;51.048;4.686;2022-07-11T09:57:35;17.15;;;11.43;;
44139;SDS011;29803;51.048;4.686;2022-07-11T10:00:07;19.00;;;12.38;;
44139;SDS011;29803;51.048;4.686;2022-07-11T10:02:39;16.60;;;11.73;;
44139;SDS011;29803;51.048;4.686;2022-07-11T10:05:11;12.88;;;9.25;;
44139;SDS011;29803;51.048;4.686;2022-07-11T10:07:41;16.20;;;11.57;;
44139;SDS011;29803;51.048;4.686;2022-07-11T10:10:12;19.08;;;11.73;;
44139;SDS011;29803;51.048;4.686;2022-07-11T10:12:44;11.85;;;8.77;;
44139;SDS011;29803;51.048;4.686;2022-07-11T10:15:17;15.02;;;9.77;;
44139;SDS011;29803;51.048;4.686;2022-07-11T10:20:58;13.35;;;9.38;;
44139;SDS011;29803;51.048;4.686;2022-07-11T10:26:11;13.07;;;9.23;;
44139;SDS011;29803;51.048;4.686;2022-07-11T10:28:55;15.25;;;9.65;;
44139;SDS011;29803;51.048;4.686;2022-07-11T10:31:31;13.93;;;8.43;;
44139;SDS011;29803;51.048;4.686;2022-07-11T10:34:05;14.10;;;8.90;;
44139;SDS011;29803;51.048;4.686;2022-07-11T10:36:40;14.20;;;8.20;;
44139;SDS011;29803;51.048;4.686;2022-07-11T10:41:45;13.43;;;8.90;;
44139;SDS011;29803;51.048;4.686;2022-07-11T10:44:15;11.43;;;8.13;;
44139;SDS011;29803;51.048;4.686;2022-07-11T10:46:46;12.23;;;8.43;;
44139;SDS011;29803;51.048;4.686;2022-07-11T10:49:17;12.43;;;9.05;;
44139;SDS011;29803;51.048;4.686;2022-07-11T10:52:03;13.30;;;8.82;;
44139;SDS011;29803;51.048;4.686;2022-07-11T11:00:40;14.27;;;9.65;;
44139;SDS011;29803;51.048;4.686;2022-07-11T11:03:11;12.77;;;8.48;;
44139;SDS011;29803;51.048;4.686;2022-07-11T11:05:42;12.80;;;8.77;;
44139;SDS011;29803;51.048;4.686;2022-07-11T11:11:07;12.10;;;8.68;;
44139;SDS011;29803;51.048;4.686;2022-07-11T11:16:46;11.30;;;8.43;;
44139;SDS011;29803;51.048;4.686;2022-07-11T11:19:58;11.88;;;8.60;;
44139;SDS011;29803;51.048;4.686;2022-07-11T11:22:20;13.68;;;9.55;;
44139;SDS011;29803;51.048;4.686;2022-07-11T11:24:52;14.13;;;9.60;;
44139;SDS011;29803;51.048;4.686;2022-07-11T11:27:25;12.27;;;8.98;;
44139;SDS011;29803;51.048;4.686;2022-07-11T11:29:56;14.25;;;9.23;;
44139;SDS011;29803;51.048;4.686;2022-07-11T11:32:29;12.27;;;8.95;;
44139;SDS011;29803;51.048;4.686;2022-07-11T11:35:01;15.93;;;8.15;;
44139;SDS011;29803;51.048;4.686;2022-07-11T11:37:34;12.75;;;9.10;;
44139;SDS011;29803;51.048;4.686;2022-07-11T11:40:04;14.50;;;8.70;;
44139;SDS011;29803;51.048;4.686;2022-07-11T11:42:35;16.08;;;9.73;;
44139;SDS011;29803;51.048;4.686;2022-07-11T11:45:06;15.35;;;9.48;;
44139;SDS011;29803;51.048;4.686;2022-07-11T11:47:46;11.87;;;8.67;;
44139;SDS011;29803;51.048;4.686;2022-07-11T11:50:19;13.63;;;9.70;;
44139;SDS011;29803;51.048;4.686;2022-07-11T11:52:49;14.80;;;9.35;;
44139;SDS011;29803;51.048;4.686;2022-07-11T11:55:20;13.43;;;9.20;;
44139;SDS011;29803;51.048;4.686;2022-07-11T11:57:51;15.23;;;8.57;;
44139;SDS011;29803;51.048;4.686;2022-07-11T12:00:22;15.23;;;10.10;;
44139;SDS011;29803;51.048;4.686;2022-07-11T12:02:56;17.25;;;10.20;;
44139;SDS011;29803;51.048;4.686;2022-07-11T12:05:26;12.27;;;8.98;;
44139;SDS011;29803;51.048;4.686;2022-07-11T12:07:59;13.63;;;8.63;;
44139;SDS011;29803;51.048;4.686;2022-07-11T12:10:29;15.02;;;8.95;;
44139;SDS011;29803;51.048;4.686;2022-07-11T12:13:00;13.10;;;9.43;;
44139;SDS011;29803;51.048;4.686;2022-07-11T12:15:31;16.23;;;10.27;;
44139;SDS011;29803;51.048;4.686;2022-07-11T12:18:04;12.85;;;8.43;;
44139;SDS011;29803;51.048;4.686;2022-07-11T12:20:36;12.07;;;9.02;;
44139;SDS011;29803;51.048;4.686;2022-07-11T12:23:11;11.80;;;8.77;;
44139;SDS011;29803;51.048;4.686;2022-07-11T12:25:43;14.68;;;8.77;;
44139;SDS011;29803;51.048;4.686;2022-07-11T12:28:14;15.73;;;8.95;;
44139;SDS011;29803;51.048;4.686;2022-07-11T12:30:45;11.80;;;7.70;;
44139;SDS011;29803;51.048;4.686;2022-07-11T12:33:16;8.82;;;6.72;;
44139;SDS011;29803;51.048;4.686;2022-07-11T12:41:21;11.27;;;7.13;;
44139;SDS011;29803;51.048;4.686;2022-07-11T12:43:52;10.25;;;8.30;;
44139;SDS011;29803;51.048;4.686;2022-07-11T12:46:41;11.05;;;8.45;;
44139;SDS011;29803;51.048;4.686;2022-07-11T12:49:13;13.40;;;7.82;;
44139;SDS011;29803;51.048;4.686;2022-07-11T12:51:45;14.20;;;8.38;;
44139;SDS011;29803;51.048;4.686;2022-07-11T12:54:16;11.30;;;8.27;;
44139;SDS011;29803;51.048;4.686;2022-07-11T12:59:34;9.65;;;7.43;;
44139;SDS011;29803;51.048;4.686;2022-07-11T13:02:10;12.20;;;7.63;;
44139;SDS011;29803;51.048;4.686;2022-07-11T13:04:42;11.02;;;8.00;;
44139;SDS011;29803;51.048;4.686;2022-07-11T13:07:28;12.18;;;7.45;;
44139;SDS011;29803;51.048;4.686;2022-07-11T13:10:20;10.98;;;8.00;;
44139;SDS011;29803;51.048;4.686;2022-07-11T13:12:54;12.65;;;8.05;;
44139;SDS011;29803;51.048;4.686;2022-07-11T13:15:25;11.73;;;7.57;;
44139;SDS011;29803;51.048;4.686;2022-07-11T13:17:55;10.35;;;7.43;;
44139;SDS011;29803;51.048;4.686;2022-07-11T13:20:26;10.57;;;7.63;;
44139;SDS011;29803;51.048;4.686;2022-07-11T13:22:57;11.25;;;7.85;;
44139;SDS011;29803;51.048;4.686;2022-07-11T13:25:28;12.05;;;7.65;;
44139;SDS011;29803;51.048;4.686;2022-07-11T13:28:00;12.05;;;7.22;;
44139;SDS011;29803;51.048;4.686;2022-07-11T13:30:30;10.77;;;6.55;;
44139;SDS011;29803;51.048;4.686;2022-07-11T13:33:01;8.95;;;6.60;;
44139;SDS011;29803;51.048;4.686;2022-07-11T13:35:31;10.40;;;7.25;;
44139;SDS011;29803;51.048;4.686;2022-07-11T13:38:02;8.38;;;5.80;;
44139;SDS011;29803;51.048;4.686;2022-07-11T13:40:33;8.52;;;6.53;;
44139;SDS011;29803;51.048;4.686;2022-07-11T13:43:03;7.72;;;6.50;;
44139;SDS011;29803;51.048;4.686;2022-07-11T13:45:34;8.55;;;6.15;;
44139;SDS011;29803;51.048;4.686;2022-07-11T13:48:05;9.65;;;5.68;;
44139;SDS011;29803;51.048;4.686;2022-07-11T13:50:36;7.10;;;5.30;;
44139;SDS011;29803;51.048;4.686;2022-07-11T13:53:06;7.35;;;4.95;;
44139;SDS011;29803;51.048;4.686;2022-07-11T13:55:37;7.32;;;5.60;;
44139;SDS011;29803;51.048;4.686;2022-07-11T13:58:07;8.00;;;5.75;;
44139;SDS011;29803;51.048;4.686;2022-07-11T14:00:54;8.35;;;6.40;;
44139;SDS011;29803;51.048;4.686;2022-07-11T14:03:24;10.02;;;5.82;;
44139;SDS011;29803;51.048;4.686;2022-07-11T14:05:55;11.85;;;5.93;;
44139;SDS011;29803;51.048;4.686;2022-07-11T14:08:26;9.98;;;5.00;;
44139;SDS011;29803;51.048;4.686;2022-07-11T14:10:57;8.02;;;5.35;;
44139;SDS011;29803;51.048;4.686;2022-07-11T14:13:27;6.18;;;4.80;;
44139;SDS011;29803;51.048;4.686;2022-07-11T14:15:58;5.57;;;4.25;;
44139;SDS011;29803;51.048;4.686;2022-07-11T14:18:29;6.05;;;4.70;;
44139;SDS011;29803;51.048;4.686;2022-07-11T14:21:01;10.43;;;5.28;;
44139;SDS011;29803;51.048;4.686;2022-07-11T14:23:32;6.43;;;5.20;;
44139;SDS011;29803;51.048;4.686;2022-07-11T14:26:03;5.43;;;3.47;;
44139;SDS011;29803;51.048;4.686;2022-07-11T14:28:36;9.10;;;4.25;;
44139;SDS011;29803;51.048;4.686;2022-07-11T14:31:07;7.47;;;4.40;;
44139;SDS011;29803;51.048;4.686;2022-07-11T14:33:38;6.30;;;4.10;;
44139;SDS011;29803;51.048;4.686;2022-07-11T14:36:08;6.05;;;4.72;;
44139;SDS011;29803;51.048;4.686;2022-07-11T14:38:39;8.20;;;4.60;;
44139;SDS011;29803;51.048;4.686;2022-07-11T14:41:09;4.07;;;3.60;;
44139;SDS011;29803;51.048;4.686;2022-07-11T14:43:40;5.00;;;3.78;;
44139;SDS011;29803;51.048;4.686;2022-07-11T14:46:11;5.20;;;3.05;;
44139;SDS011;29803;51.048;4.686;2022-07-11T14:48:41;6.80;;;3.13;;
44139;SDS011;29803;51.048;4.686;2022-07-11T14:51:13;6.70;;;2.65;;
44139;SDS011;29803;51.048;4.686;2022-07-11T14:53:43;4.72;;;2.72;;
44139;SDS011;29803;51.048;4.686;2022-07-11T14:56:14;6.32;;;3.22;;
44139;SDS011;29803;51.048;4.686;2022-07-11T14:58:45;8.30;;;3.35;;
44139;SDS011;29803;51.048;4.686;2022-07-11T15:01:16;8.32;;;3.40;;
44139;SDS011;29803;51.048;4.686;2022-07-11T15:03:46;4.72;;;3.20;;
44139;SDS011;29803;51.048;4.686;2022-07-11T15:06:17;5.88;;;3.20;;
44139;SDS011;29803;51.048;4.686;2022-07-11T15:08:47;3.83;;;3.15;;
44139;SDS011;29803;51.048;4.686;2022-07-11T15:11:36;5.13;;;4.00;;
44139;SDS011;29803;51.048;4.686;2022-07-11T15:14:25;6.57;;;3.95;;
44139;SDS011;29803;51.048;4.686;2022-07-11T15:16:56;8.18;;;4.00;;
44139;SDS011;29803;51.048;4.686;2022-07-11T15:19:26;7.95;;;4.72;;
44139;SDS011;29803;51.048;4.686;2022-07-11T15:21:57;7.13;;;3.08;;
44139;SDS011;29803;51.048;4.686;2022-07-11T15:24:27;5.93;;;3.53;;
44139;SDS011;29803;51.048;4.686;2022-07-11T15:26:58;6.43;;;3.40;;